Time;durP1;ratioP1;P1;durP2;ratioP2;P2;SDS_P1;SDS_P2;PMS_P1;PMS_P2;Temp;Humidity;BMP_temperature;BMP_pressure;BME280_temperature;BME280_humidity;BME280_pressure;Samples;Min_cycle;Max_cycle;Signal;HPM_P1;HPM_P2
2023/02/23 00:00:47;;;;;;;37.65;25.67;;;;;;;;;;4924083;29;20024;-94
2023/02/23 00:03:13;;;;;;;33.38;25.73;;;;;;;;;;4924105;29;20100;-94
2023/02/23 00:05:39;;;;;;;35.40;25.27;;;;;;;;;;4924046;29;20088;-95
2023/02/23 00:08:06;;;;;;;35.50;25.52;;;;;;;;;;4923750;29;20029;-94
2023/02/23 00:10:32;;;;;;;34.88;25.83;;;;;;;;;;4906947;29;20028;-94
2023/02/23 00:12:59;;;;;;;37.15;26.52;;;;;;;;;;4923939;29;20107;-94
2023/02/23 00:15:28;;;;;;;36.47;26.08;;;;;;;;;;4907691;29;20410;-95
2023/02/23 00:17:57;;;;;;;37.95;26.10;;;;;;;;;;4927273;29;20028;-96
2023/02/23 00:20:26;;;;;;;36.75;26.13;;;;;;;;;;4909526;29;20051;-95
2023/02/23 00:22:53;;;;;;;36.15;26.25;;;;;;;;;;4925799;29;20025;-96
2023/02/23 00:25:20;;;;;;;33.88;24.90;;;;;;;;;;4926491;29;20074;-95
2023/02/23 00:27:46;;;;;;;38.67;24.88;;;;;;;;;;4925763;29;20028;-95
2023/02/23 00:30:13;;;;;;;35.10;24.42;;;;;;;;;;4926212;29;20059;-95
2023/02/23 00:32:39;;;;;;;34.78;24.10;;;;;;;;;;4925545;29;20026;-96
2023/02/23 00:35:10;;;;;;;36.13;24.50;;;;;;;;;;4908976;29;20105;-95
2023/02/23 00:40:40;;;;;;;35.13;24.35;;;;;;;;;;4927935;29;20047;-96
2023/02/23 00:43:06;;;;;;;35.15;24.13;;;;;;;;;;4908523;29;20028;-95
2023/02/23 00:45:32;;;;;;;37.88;26.30;;;;;;;;;;4906738;29;20024;-95
2023/02/23 00:53:46;;;;;;;41.35;26.73;;;;;;;;;;581874;23;20316;-96
2023/02/23 00:56:13;;;;;;;40.90;28.17;;;;;;;;;;4922243;29;20084;-95
2023/02/23 00:58:40;;;;;;;39.20;28.05;;;;;;;;;;4924882;29;20055;-95
2023/02/23 01:01:11;;;;;;;43.15;28.33;;;;;;;;;;4923469;29;20788;-94
2023/02/23 01:03:37;;;;;;;38.60;28.17;;;;;;;;;;4923468;29;20056;-95
2023/02/23 01:09:09;;;;;;;37.42;26.27;;;;;;;;;;5255954;23;20476;-94
2023/02/23 01:11:35;;;;;;;42.28;27.60;;;;;;;;;;4943034;29;20107;-95
2023/02/23 01:14:01;;;;;;;43.40;29.30;;;;;;;;;;4942056;29;20033;-94
2023/02/23 01:16:28;;;;;;;49.53;30.42;;;;;;;;;;4941730;29;20528;-95
2023/02/23 01:18:55;;;;;;;56.42;33.67;;;;;;;;;;4925082;29;20031;-94
2023/02/23 01:30:59;;;;;;;58.08;33.50;;;;;;;;;;4941845;29;20035;-96
2023/02/23 01:33:25;;;;;;;53.55;31.83;;;;;;;;;;4941163;29;20481;-94
2023/02/23 01:36:24;;;;;;;48.67;32.00;;;;;;;;;;4941388;29;20023;-95
2023/02/23 01:38:54;;;;;;;44.22;29.17;;;;;;;;;;4940918;29;20044;-95
2023/02/23 01:41:20;;;;;;;39.53;27.85;;;;;;;;;;4941244;29;20036;-94
2023/02/23 01:43:55;;;;;;;42.10;28.40;;;;;;;;;;4941264;29;20031;-96
2023/02/23 02:00:35;;;;;;;45.88;28.70;;;;;;;;;;4841836;29;20493;-96
2023/02/23 02:03:12;;;;;;;40.85;27.52;;;;;;;;;;4841732;29;20042;-96
2023/02/23 02:05:48;;;;;;;44.40;28.05;;;;;;;;;;4841325;29;20054;-96
2023/02/23 02:08:19;;;;;;;41.92;29.13;;;;;;;;;;4839688;29;20042;-95
2023/02/23 02:10:54;;;;;;;45.78;28.58;;;;;;;;;;4839707;29;20105;-96
2023/02/23 02:13:28;;;;;;;49.17;31.05;;;;;;;;;;4823694;29;20031;-95
2023/02/23 02:28:21;;;;;;;51.28;30.50;;;;;;;;;;4941472;29;20106;-96
2023/02/23 02:31:01;;;;;;;44.70;28.13;;;;;;;;;;4929546;29;20043;-95
2023/02/23 02:33:31;;;;;;;43.40;27.98;;;;;;;;;;4930636;29;20027;-96
2023/02/23 02:39:21;;;;;;;41.35;27.50;;;;;;;;;;4947850;29;20027;-95
2023/02/23 02:41:55;;;;;;;38.25;26.77;;;;;;;;;;4944017;29;20046;-95
2023/02/23 02:44:36;;;;;;;45.95;27.98;;;;;;;;;;4941501;29;20327;-94
2023/02/23 04:24:16;;;;;;;28.75;19.00;;;;;;;;;;5010541;23;20052;-96
2023/02/23 04:26:43;;;;;;;35.15;19.02;;;;;;;;;;4948354;29;20035;-95
2023/02/23 04:29:10;;;;;;;28.65;18.98;;;;;;;;;;4937245;29;20032;-96
2023/02/23 04:31:36;;;;;;;28.85;18.92;;;;;;;;;;4923592;29;20042;-95
2023/02/23 04:34:03;;;;;;;31.58;18.73;;;;;;;;;;4923448;29;20048;-96
2023/02/23 04:36:29;;;;;;;30.52;19.27;;;;;;;;;;4922775;29;20024;-96
2023/02/23 04:38:56;;;;;;;32.90;20.30;;;;;;;;;;4922418;29;20028;-96
2023/02/23 04:41:22;;;;;;;31.70;19.00;;;;;;;;;;4922539;29;20063;-95
2023/02/23 04:43:48;;;;;;;36.22;20.30;;;;;;;;;;4923793;29;20300;-95
2023/02/23 04:46:14;;;;;;;30.35;18.40;;;;;;;;;;4928585;29;20035;-83
2023/02/23 04:48:41;;;;;;;28.15;17.67;;;;;;;;;;4921622;29;20347;-85
2023/02/23 04:51:07;;;;;;;29.05;18.20;;;;;;;;;;4922543;29;20040;-83
2023/02/23 04:53:33;;;;;;;31.55;19.17;;;;;;;;;;4920510;29;20036;-83
2023/02/23 04:55:59;;;;;;;36.50;21.88;;;;;;;;;;4922232;29;20042;-83
2023/02/23 04:58:26;;;;;;;44.13;35.03;;;;;;;;;;4921920;29;20028;-84
2023/02/23 05:00:52;;;;;;;32.63;21.65;;;;;;;;;;4922114;29;20027;-83
2023/02/23 05:03:18;;;;;;;33.42;20.17;;;;;;;;;;4922021;29;20119;-83
2023/02/23 05:05:45;;;;;;;39.95;21.58;;;;;;;;;;4920902;29;20403;-83
2023/02/23 05:08:11;;;;;;;43.13;23.70;;;;;;;;;;4920980;29;20032;-84
2023/02/23 05:10:37;;;;;;;36.33;20.98;;;;;;;;;;4922279;29;20036;-83
2023/02/23 05:13:03;;;;;;;46.97;26.02;;;;;;;;;;4920088;29;20040;-82
2023/02/23 05:15:29;;;;;;;42.42;23.80;;;;;;;;;;4921907;29;20055;-83
2023/02/23 05:17:55;;;;;;;88.47;42.63;;;;;;;;;;4921891;29;20028;-83
2023/02/23 05:20:21;;;;;;;110.70;52.80;;;;;;;;;;4922718;29;20024;-83
2023/02/23 05:22:48;;;;;;;79.20;42.13;;;;;;;;;;4938120;29;20034;-83
2023/02/23 05:25:14;;;;;;;62.85;33.72;;;;;;;;;;4939264;29;20048;-83
2023/02/23 05:27:40;;;;;;;47.40;24.95;;;;;;;;;;4940716;29;20035;-83
2023/02/23 05:30:08;;;;;;;43.28;22.88;;;;;;;;;;4939677;29;20024;-83
2023/02/23 05:32:34;;;;;;;33.45;21.17;;;;;;;;;;4940486;29;20031;-83
2023/02/23 05:35:01;;;;;;;34.60;20.48;;;;;;;;;;4940353;29;20032;-83
2023/02/23 05:37:27;;;;;;;30.73;19.17;;;;;;;;;;4935604;29;20028;-83
2023/02/23 05:39:54;;;;;;;33.15;19.17;;;;;;;;;;4921271;29;20352;-83
2023/02/23 05:42:20;;;;;;;27.73;17.65;;;;;;;;;;4921125;29;20024;-82
2023/02/23 05:44:46;;;;;;;103.65;34.40;;;;;;;;;;4921103;29;20024;-83
2023/02/23 05:47:12;;;;;;;351.27;95.40;;;;;;;;;;4921128;29;20040;-83
2023/02/23 05:49:38;;;;;;;437.10;123.75;;;;;;;;;;4919594;29;20354;-83
2023/02/23 05:52:05;;;;;;;178.63;57.08;;;;;;;;;;4921150;29;20028;-83
2023/02/23 05:54:31;;;;;;;50.95;23.60;;;;;;;;;;4920944;29;20031;-83
2023/02/23 05:56:57;;;;;;;34.90;19.70;;;;;;;;;;4931921;29;20035;-83
2023/02/23 05:59:23;;;;;;;39.85;22.15;;;;;;;;;;4923192;29;20059;-83
2023/02/23 06:01:49;;;;;;;40.83;23.75;;;;;;;;;;4921446;29;20454;-84
2023/02/23 06:04:16;;;;;;;38.90;21.92;;;;;;;;;;4921023;29;20112;-83
2023/02/23 06:06:42;;;;;;;35.42;21.52;;;;;;;;;;4920755;29;20043;-83
2023/02/23 06:09:08;;;;;;;33.72;20.52;;;;;;;;;;4919521;29;20040;-83
2023/02/23 06:11:34;;;;;;;46.28;30.05;;;;;;;;;;4920801;29;20115;-83
2023/02/23 06:14:00;;;;;;;50.83;33.90;;;;;;;;;;4933684;29;20314;-83
2023/02/23 06:16:27;;;;;;;48.40;26.95;;;;;;;;;;4937155;29;20027;-83
2023/02/23 06:18:53;;;;;;;41.17;22.30;;;;;;;;;;4920678;29;20024;-83
2023/02/23 06:21:20;;;;;;;35.08;20.88;;;;;;;;;;4920547;29;20096;-86
2023/02/23 06:23:46;;;;;;;37.88;22.95;;;;;;;;;;4920275;29;20024;-84
2023/02/23 06:26:12;;;;;;;42.72;27.90;;;;;;;;;;4919297;29;20028;-83
2023/02/23 06:28:38;;;;;;;49.63;30.95;;;;;;;;;;4925180;29;20028;-83
2023/02/23 06:31:05;;;;;;;47.50;31.42;;;;;;;;;;4938731;29;20066;-84
2023/02/23 06:33:31;;;;;;;47.65;30.80;;;;;;;;;;4939555;29;20111;-83
2023/02/23 06:35:57;;;;;;;48.40;32.50;;;;;;;;;;4939000;29;20043;-84
2023/02/23 06:38:43;;;;;;;52.40;31.60;;;;;;;;;;4940118;29;20445;-83
2023/02/23 06:41:10;;;;;;;45.95;25.60;;;;;;;;;;4939119;29;20139;-84
2023/02/23 06:43:37;;;;;;;45.30;27.38;;;;;;;;;;4937614;29;20517;-83
2023/02/23 06:46:03;;;;;;;47.20;27.60;;;;;;;;;;4939513;29;20118;-83
2023/02/23 06:48:29;;;;;;;40.85;23.38;;;;;;;;;;4939569;29;20327;-83
2023/02/23 06:50:58;;;;;;;31.90;20.23;;;;;;;;;;4927034;29;20031;-83
2023/02/23 06:53:24;;;;;;;32.58;20.30;;;;;;;;;;4930268;29;20071;-83
2023/02/23 06:55:50;;;;;;;35.42;24.83;;;;;;;;;;4927363;29;20083;-83
2023/02/23 06:58:16;;;;;;;63.55;30.73;;;;;;;;;;4928230;29;20027;-82
2023/02/23 07:00:42;;;;;;;46.03;28.33;;;;;;;;;;4929853;29;20056;-82
2023/02/23 07:03:10;;;;;;;48.42;28.98;;;;;;;;;;4929844;29;20024;-83
2023/02/23 07:05:36;;;;;;;73.53;44.78;;;;;;;;;;4931124;29;20123;-83
2023/02/23 07:08:02;;;;;;;49.03;30.98;;;;;;;;;;4933493;29;20358;-83
2023/02/23 07:10:28;;;;;;;46.22;32.08;;;;;;;;;;4928086;29;20334;-83
2023/02/23 07:12:55;;;;;;;41.25;28.50;;;;;;;;;;4931411;29;20024;-83
2023/02/23 07:15:21;;;;;;;43.17;27.20;;;;;;;;;;4933479;29;20034;-83
2023/02/23 07:17:48;;;;;;;37.30;20.73;;;;;;;;;;4926125;29;20022;-83
2023/02/23 07:20:15;;;;;;;45.33;27.55;;;;;;;;;;4923581;29;20036;-83
2023/02/23 07:22:41;;;;;;;36.53;22.70;;;;;;;;;;4922054;29;20047;-84
2023/02/23 07:25:08;;;;;;;30.58;21.60;;;;;;;;;;4923264;29;20123;-84
2023/02/23 07:27:34;;;;;;;42.00;25.15;;;;;;;;;;4923236;29;20044;-83
2023/02/23 07:30:01;;;;;;;40.97;23.50;;;;;;;;;;4923324;29;20423;-83
2023/02/23 07:32:28;;;;;;;42.88;23.65;;;;;;;;;;4922863;29;20410;-83
2023/02/23 07:34:54;;;;;;;37.90;22.25;;;;;;;;;;4923321;29;20109;-84
2023/02/23 07:37:20;;;;;;;32.42;20.98;;;;;;;;;;4923203;29;20028;-82
2023/02/23 07:39:46;;;;;;;40.42;26.85;;;;;;;;;;4922960;29;20020;-82
2023/02/23 07:42:13;;;;;;;41.90;27.40;;;;;;;;;;4923881;29;20060;-83
2023/02/23 07:44:39;;;;;;;32.15;22.05;;;;;;;;;;4921507;29;20127;-83
2023/02/23 07:47:06;;;;;;;33.35;21.73;;;;;;;;;;4926266;29;20024;-82
2023/02/23 07:49:33;;;;;;;45.78;24.65;;;;;;;;;;4927870;29;20048;-82
2023/02/23 07:51:59;;;;;;;50.88;26.65;;;;;;;;;;4922590;29;20028;-82
2023/02/23 07:54:25;;;;;;;48.67;27.40;;;;;;;;;;4930932;29;20424;-82
2023/02/23 07:56:51;;;;;;;42.78;23.77;;;;;;;;;;4930890;29;20421;-82
2023/02/23 07:59:18;;;;;;;38.67;24.08;;;;;;;;;;4930761;29;20399;-82
2023/02/23 08:01:44;;;;;;;36.85;22.10;;;;;;;;;;4932189;29;20024;-82
2023/02/23 08:04:10;;;;;;;34.13;22.92;;;;;;;;;;4924670;29;20031;-82
2023/02/23 08:06:36;;;;;;;33.80;20.63;;;;;;;;;;4931240;29;20039;-82
2023/02/23 08:09:04;;;;;;;31.25;20.92;;;;;;;;;;4930722;29;20035;-81
2023/02/23 08:11:30;;;;;;;40.85;22.30;;;;;;;;;;4930431;29;20076;-82
2023/02/23 08:13:58;;;;;;;69.07;32.10;;;;;;;;;;4931884;29;20032;-82
2023/02/23 08:16:28;;;;;;;35.35;21.17;;;;;;;;;;4940020;29;20024;-82
2023/02/23 08:18:58;;;;;;;33.05;21.55;;;;;;;;;;4941301;29;20419;-82
2023/02/23 08:21:25;;;;;;;31.20;20.48;;;;;;;;;;4941162;29;20031;-82
2023/02/23 08:23:51;;;;;;;28.60;20.23;;;;;;;;;;4940873;29;20058;-82
2023/02/23 08:26:17;;;;;;;34.50;22.88;;;;;;;;;;4940076;29;20034;-81
2023/02/23 08:28:45;;;;;;;29.67;21.20;;;;;;;;;;4941133;29;20100;-81
2023/02/23 08:31:12;;;;;;;33.28;21.70;;;;;;;;;;4940979;29;20024;-82
2023/02/23 08:33:38;;;;;;;26.15;19.13;;;;;;;;;;4941073;29;20027;-82
2023/02/23 08:36:05;;;;;;;26.27;18.23;;;;;;;;;;4941182;29;20118;-82
2023/02/23 08:38:53;;;;;;;27.25;17.70;;;;;;;;;;4937777;29;20024;-81
2023/02/23 08:41:19;;;;;;;19.23;14.75;;;;;;;;;;4938409;29;20474;-82
2023/02/23 08:43:45;;;;;;;21.42;15.55;;;;;;;;;;4930594;29;20067;-82
2023/02/23 08:46:12;;;;;;;26.70;16.55;;;;;;;;;;4930582;29;20028;-81
2023/02/23 08:48:39;;;;;;;24.20;16.85;;;;;;;;;;4929527;29;20020;-81
2023/02/23 08:51:06;;;;;;;28.00;20.00;;;;;;;;;;4931579;29;20079;-82
2023/02/23 08:53:32;;;;;;;23.35;17.67;;;;;;;;;;4931027;29;20036;-82
2023/02/23 08:55:59;;;;;;;23.23;17.70;;;;;;;;;;4928510;29;20055;-81
2023/02/23 08:58:26;;;;;;;22.23;16.00;;;;;;;;;;4931354;29;20287;-81
2023/02/23 09:00:52;;;;;;;21.23;15.65;;;;;;;;;;4931202;29;20115;-81
2023/02/23 09:03:18;;;;;;;20.20;14.50;;;;;;;;;;4929657;29;20416;-81
2023/02/23 09:05:44;;;;;;;20.67;14.48;;;;;;;;;;4931487;29;20119;-81
2023/02/23 09:08:11;;;;;;;24.10;16.77;;;;;;;;;;4922700;29;20047;-82
2023/02/23 09:10:37;;;;;;;20.75;14.32;;;;;;;;;;4921623;29;20028;-81
2023/02/23 09:13:03;;;;;;;22.05;13.68;;;;;;;;;;4921605;29;20422;-81
2023/02/23 09:15:29;;;;;;;21.90;14.93;;;;;;;;;;4904397;29;20346;-81
2023/02/23 09:18:00;;;;;;;23.58;14.50;;;;;;;;;;4921171;29;20380;-81
2023/02/23 09:20:26;;;;;;;17.27;12.77;;;;;;;;;;4926624;29;20027;-81
2023/02/23 09:22:52;;;;;;;18.88;13.18;;;;;;;;;;4930095;29;20052;-81
2023/02/23 09:25:21;;;;;;;21.00;14.35;;;;;;;;;;4930379;29;20341;-80
2023/02/23 09:27:47;;;;;;;19.27;12.77;;;;;;;;;;4927562;29;20035;-80
2023/02/23 09:30:16;;;;;;;29.70;17.23;;;;;;;;;;4930532;29;20028;-81
2023/02/23 09:32:52;;;;;;;20.85;13.38;;;;;;;;;;4940113;29;20055;-81
2023/02/23 09:35:19;;;;;;;28.73;17.80;;;;;;;;;;4939116;29;20410;-81
2023/02/23 09:37:49;;;;;;;18.42;13.70;;;;;;;;;;4939553;29;20031;-81
2023/02/23 09:40:20;;;;;;;18.30;13.02;;;;;;;;;;4939943;29;20473;-81
2023/02/23 09:42:56;;;;;;;22.75;14.25;;;;;;;;;;4935215;29;20060;-81
2023/02/23 09:45:22;;;;;;;20.40;13.60;;;;;;;;;;4939802;29;20027;-80
2023/02/23 09:47:51;;;;;;;20.70;14.32;;;;;;;;;;4938034;29;20036;-81
2023/02/23 09:50:21;;;;;;;20.00;13.70;;;;;;;;;;4939689;29;20043;-81
2023/02/23 09:52:48;;;;;;;17.75;11.32;;;;;;;;;;4937766;29;20426;-79
2023/02/23 09:55:15;;;;;;;17.55;10.98;;;;;;;;;;4922608;29;20331;-81
2023/02/23 09:57:43;;;;;;;12.55;10.23;;;;;;;;;;4920110;29;20055;-81
2023/02/23 10:00:28;;;;;;;19.00;11.50;;;;;;;;;;4920555;29;20020;-81
2023/02/23 10:03:01;;;;;;;16.45;11.73;;;;;;;;;;4919448;29;20331;-80
2023/02/23 10:05:30;;;;;;;15.30;10.32;;;;;;;;;;4920457;29;20036;-81
2023/02/23 10:11:06;;;;;;;13.90;8.88;;;;;;;;;;4920497;29;20092;-80
2023/02/23 10:13:32;;;;;;;13.93;8.68;;;;;;;;;;4920241;29;20128;-81
2023/02/23 10:16:17;;;;;;;12.55;8.00;;;;;;;;;;4919761;29;20035;-81
2023/02/23 10:18:51;;;;;;;9.40;7.22;;;;;;;;;;4927679;29;20501;-81
2023/02/23 10:21:23;;;;;;;17.92;8.30;;;;;;;;;;4928300;29;20071;-81
2023/02/23 10:23:49;;;;;;;;;;;;;;;;;;4930364;29;20024;-81
2023/02/23 10:26:21;;;;;;;10.80;6.20;;;;;;;;;;4930111;29;20012;-82
2023/02/23 10:28:48;;;;;;;9.65;6.05;;;;;;;;;;4928832;29;20106;-81
2023/02/23 10:31:36;;;;;;;9.40;6.57;;;;;;;;;;4928002;29;20047;-81
2023/02/23 10:34:04;;;;;;;9.68;5.40;;;;;;;;;;4926261;29;20031;-81
2023/02/23 10:36:35;;;;;;;15.88;5.90;;;;;;;;;;4911667;29;20327;-82
2023/02/23 10:39:02;;;;;;;11.00;6.25;;;;;;;;;;4928467;29;20059;-81
2023/02/23 10:41:30;;;;;;;8.68;5.90;;;;;;;;;;4929072;29;20381;-81
2023/02/23 10:43:56;;;;;;;10.00;7.07;;;;;;;;;;4929885;29;20063;-81
2023/02/23 10:46:24;;;;;;;10.93;6.85;;;;;;;;;;4933686;29;20032;-81
2023/02/23 10:48:52;;;;;;;17.60;8.02;;;;;;;;;;4928858;29;20040;-81
2023/02/23 10:51:21;;;;;;;16.85;10.57;;;;;;;;;;4926747;29;20016;-81
2023/02/23 10:53:47;;;;;;;11.10;7.47;;;;;;;;;;4937339;29;20024;-84
2023/02/23 10:56:17;;;;;;;9.50;6.15;;;;;;;;;;4937644;29;20090;-81
2023/02/23 10:58:45;;;;;;;10.07;6.30;;;;;;;;;;4938512;29;20063;-81
2023/02/23 11:01:11;;;;;;;49.20;18.55;;;;;;;;;;4939850;29;20098;-81
2023/02/23 11:03:45;;;;;;;33.88;13.65;;;;;;;;;;4938379;29;20023;-80
2023/02/23 11:06:41;;;;;;;47.97;20.55;;;;;;;;;;4939435;29;20028;-80
2023/02/23 11:09:23;;;;;;;13.95;7.72;;;;;;;;;;4862740;29;20038;-81
2023/02/23 11:12:15;;;;;;;11.90;7.18;;;;;;;;;;4846911;29;20444;-81
2023/02/23 11:14:42;;;;;;;10.38;7.70;;;;;;;;;;4843848;29;20132;-80
2023/02/23 11:17:23;;;;;;;13.35;7.57;;;;;;;;;;4847214;29;20420;-81
2023/02/23 11:19:49;;;;;;;12.33;8.33;;;;;;;;;;4862669;29;20532;-81
2023/02/23 11:22:22;;;;;;;11.45;7.85;;;;;;;;;;4862532;29;20034;-81
2023/02/23 11:24:48;;;;;;;11.75;7.15;;;;;;;;;;4862330;29;20059;-81
2023/02/23 11:27:22;;;;;;;14.35;8.02;;;;;;;;;;4847028;29;20187;-81
2023/02/23 11:29:49;;;;;;;10.52;7.60;;;;;;;;;;4862336;29;20332;-81
2023/02/23 11:32:25;;;;;;;9.65;6.35;;;;;;;;;;4860097;29;20045;-81
2023/02/23 11:35:11;;;;;;;12.02;7.88;;;;;;;;;;4846152;29;20083;-81
2023/02/23 11:37:37;;;;;;;9.18;6.50;;;;;;;;;;4861530;29;20436;-80
2023/02/23 11:40:17;;;;;;;8.43;5.72;;;;;;;;;;4861452;29;20053;-82
2023/02/23 11:42:56;;;;;;;11.00;7.22;;;;;;;;;;4846157;29;20479;-81
2023/02/23 11:45:24;;;;;;;9.48;6.38;;;;;;;;;;4887098;29;20040;-82
2023/02/23 11:47:51;;;;;;;10.23;6.72;;;;;;;;;;4920720;29;20323;-81
2023/02/23 11:50:25;;;;;;;10.82;6.70;;;;;;;;;;4923625;29;20024;-81
2023/02/23 11:53:12;;;;;;;12.55;8.00;;;;;;;;;;4922266;29;20319;-81
2023/02/23 11:55:39;;;;;;;13.27;7.80;;;;;;;;;;4928199;29;20039;-81
2023/02/23 11:58:18;;;;;;;13.70;7.75;;;;;;;;;;4931874;29;20076;-93
2023/02/23 12:00:54;;;;;;;15.70;8.77;;;;;;;;;;4934007;29;20052;-94
2023/02/23 12:03:21;;;;;;;10.25;6.78;;;;;;;;;;4931970;29;20032;-94
2023/02/23 12:05:51;;;;;;;9.57;7.20;;;;;;;;;;4930566;29;20032;-96
2023/02/23 12:08:22;;;;;;;17.27;8.65;;;;;;;;;;4912321;29;20036;-96
2023/02/23 12:10:54;;;;;;;15.30;8.50;;;;;;;;;;4936567;29;20115;-96
2023/02/23 12:13:20;;;;;;;9.90;7.40;;;;;;;;;;4931249;29;20060;-95
2023/02/23 12:18:37;;;;;;;10.68;7.03;;;;;;;;;;5919354;23;20020;-95
2023/02/23 12:21:45;;;;;;;13.90;8.57;;;;;;;;;;4906460;29;20053;-96
2023/02/23 12:24:47;;;;;;;9.27;7.50;;;;;;;;;;4814535;29;20023;-95
2023/02/23 12:38:39;;;;;;;11.15;6.75;;;;;;;;;;5294892;23;20075;-96
2023/02/23 12:56:21;;;;;;;18.10;9.73;;;;;;;;;;5088025;23;20279;-94
2023/02/23 12:58:55;;;;;;;13.52;7.80;;;;;;;;;;4935395;29;20071;-95
2023/02/23 13:01:36;;;;;;;12.60;8.18;;;;;;;;;;4934072;29;20087;-95
2023/02/23 13:09:40;;;;;;;13.35;8.00;;;;;;;;;;5655837;23;20115;-96
2023/02/23 13:12:27;;;;;;;11.70;6.80;;;;;;;;;;4952256;29;20050;-95
2023/02/23 13:15:17;;;;;;;14.52;8.38;;;;;;;;;;4939553;29;20040;-96
2023/02/23 13:17:48;;;;;;;14.43;8.90;;;;;;;;;;4956901;29;20043;-96
2023/02/23 13:20:26;;;;;;;9.98;7.30;;;;;;;;;;4937458;29;20032;-96
2023/02/23 13:23:12;;;;;;;16.58;10.60;;;;;;;;;;4955006;29;20024;-96
2023/02/23 13:26:04;;;;;;;11.85;8.02;;;;;;;;;;4958787;29;20079;-96
2023/02/23 13:29:07;;;;;;;15.15;9.27;;;;;;;;;;4928110;29;20044;-96
2023/02/23 13:31:39;;;;;;;12.30;7.90;;;;;;;;;;5167737;23;20137;-94
2023/02/23 13:34:36;;;;;;;13.75;7.35;;;;;;;;;;4952356;29;20032;-93
2023/02/23 13:40:08;;;;;;;11.15;6.95;;;;;;;;;;4941980;26;20454;-96
2023/02/23 13:42:34;;;;;;;14.13;8.15;;;;;;;;;;4833960;29;20134;-95
2023/02/23 13:45:06;;;;;;;11.57;7.40;;;;;;;;;;4833153;29;20046;-94
2023/02/23 13:47:51;;;;;;;13.52;8.63;;;;;;;;;;4849917;29;20042;-95
2023/02/23 13:50:27;;;;;;;10.05;6.18;;;;;;;;;;4847715;29;20075;-96
2023/02/23 13:53:11;;;;;;;13.93;7.75;;;;;;;;;;4831459;29;20513;-94
2023/02/23 13:55:46;;;;;;;12.60;6.75;;;;;;;;;;4826389;29;20033;-94
2023/02/23 13:58:17;;;;;;;10.60;7.60;;;;;;;;;;4847022;29;20448;-94
2023/02/23 14:00:44;;;;;;;10.45;7.32;;;;;;;;;;4846610;29;20421;-95
2023/02/23 14:03:20;;;;;;;10.32;6.75;;;;;;;;;;4846405;29;20406;-96
2023/02/23 14:05:46;;;;;;;11.43;7.15;;;;;;;;;;4830975;29;20041;-94
2023/02/23 14:08:28;;;;;;;10.30;7.30;;;;;;;;;;4845823;29;20042;-95
2023/02/23 14:10:56;;;;;;;9.10;7.15;;;;;;;;;;4846551;29;20049;-95
2023/02/23 14:13:39;;;;;;;11.73;8.25;;;;;;;;;;4846939;29;20045;-94
2023/02/23 14:16:18;;;;;;;9.88;7.03;;;;;;;;;;4831320;29;20083;-95
2023/02/23 14:18:53;;;;;;;11.98;6.45;;;;;;;;;;4888809;29;20044;-96
2023/02/23 14:21:24;;;;;;;10.63;6.35;;;;;;;;;;4943368;29;20020;-95
2023/02/23 14:24:08;;;;;;;10.93;6.50;;;;;;;;;;4941930;29;20024;-94
2023/02/23 14:26:36;;;;;;;8.52;7.03;;;;;;;;;;4923792;29;20600;-95
2023/02/23 14:29:13;;;;;;;8.70;6.93;;;;;;;;;;4927183;29;20030;-92
2023/02/23 14:31:52;;;;;;;11.25;6.30;;;;;;;;;;4924687;29;20063;-95
2023/02/23 14:34:21;;;;;;;11.05;6.20;;;;;;;;;;4920821;29;20033;-96
2023/02/23 14:36:48;;;;;;;11.70;7.30;;;;;;;;;;4921900;29;20419;-95
2023/02/23 14:39:22;;;;;;;14.00;7.93;;;;;;;;;;4920912;29;20058;-95
2023/02/23 14:41:54;;;;;;;11.93;6.93;;;;;;;;;;4920447;29;20075;-94
2023/02/23 14:44:28;;;;;;;15.00;7.25;;;;;;;;;;4921292;29;20029;-94
2023/02/23 14:46:55;;;;;;;11.85;8.05;;;;;;;;;;4920657;29;20463;-95
2023/02/23 14:49:33;;;;;;;12.27;7.40;;;;;;;;;;4923519;29;20040;-95
2023/02/23 14:52:05;;;;;;;12.45;6.50;;;;;;;;;;4923514;29;20111;-93
2023/02/23 14:54:36;;;;;;;13.30;7.50;;;;;;;;;;4925144;29;20032;-94
2023/02/23 14:57:03;;;;;;;14.73;9.02;;;;;;;;;;4924499;29;20038;-95
2023/02/23 14:59:36;;;;;;;12.43;7.97;;;;;;;;;;4921658;29;20028;-96
2023/02/23 15:02:07;;;;;;;13.70;6.55;;;;;;;;;;4921448;29;20436;-94
2023/02/23 15:04:37;;;;;;;9.98;6.60;;;;;;;;;;4921191;29;20032;-94
2023/02/23 15:07:04;;;;;;;12.07;7.75;;;;;;;;;;4921622;29;20116;-95
2023/02/23 15:09:30;;;;;;;15.73;8.52;;;;;;;;;;4921697;29;20048;-94
2023/02/23 15:11:57;;;;;;;11.38;6.05;;;;;;;;;;4920410;29;20028;-94
2023/02/23 15:14:24;;;;;;;9.27;6.70;;;;;;;;;;4920888;29;20032;-94
2023/02/23 15:16:50;;;;;;;14.23;8.15;;;;;;;;;;4920936;29;20028;-93
2023/02/23 15:19:18;;;;;;;11.70;7.30;;;;;;;;;;4904418;29;20020;-94
2023/02/23 15:21:53;;;;;;;8.38;5.97;;;;;;;;;;4922652;29;20100;-94
2023/02/23 15:27:25;;;;;;;10.15;6.28;;;;;;;;;;4944532;23;20186;-94
2023/02/23 15:30:23;;;;;;;9.63;6.60;;;;;;;;;;4949924;29;20028;-96
2023/02/23 15:33:01;;;;;;;9.07;6.10;;;;;;;;;;4948356;29;20039;-94
2023/02/23 15:35:29;;;;;;;10.30;7.43;;;;;;;;;;4926757;29;20027;-96
2023/02/23 15:37:56;;;;;;;18.33;7.90;;;;;;;;;;4943195;29;20036;-86
2023/02/23 15:40:24;;;;;;;73.90;34.10;;;;;;;;;;4943098;29;20027;-93
2023/02/23 15:42:51;;;;;;;331.60;141.30;;;;;;;;;;4925120;29;20032;-94
2023/02/23 15:45:29;;;;;;;313.30;115.70;;;;;;;;;;4931297;29;20028;-86
2023/02/23 15:48:02;;;;;;;296.10;92.78;;;;;;;;;;4924108;29;20445;-85
2023/02/23 15:50:31;;;;;;;223.80;74.05;;;;;;;;;;4924235;29;20042;-86
2023/02/23 15:53:00;;;;;;;225.15;81.45;;;;;;;;;;4906491;29;20494;-85
2023/02/23 15:55:36;;;;;;;124.38;43.20;;;;;;;;;;4906645;29;20043;-85
2023/02/23 15:58:14;;;;;;;111.68;39.80;;;;;;;;;;4923848;29;20478;-85
2023/02/23 16:00:41;;;;;;;97.10;34.28;;;;;;;;;;4923937;29;20411;-85
2023/02/23 16:03:20;;;;;;;106.72;38.15;;;;;;;;;;4923798;29;20027;-85
2023/02/23 16:05:54;;;;;;;93.80;33.22;;;;;;;;;;4906528;29;20039;-86
2023/02/23 16:08:23;;;;;;;42.90;17.77;;;;;;;;;;4924173;29;20078;-86
2023/02/23 16:10:50;;;;;;;85.78;28.38;;;;;;;;;;4923361;29;20308;-87
2023/02/23 16:13:20;;;;;;;68.80;26.08;;;;;;;;;;4923697;29;20418;-87
2023/02/23 16:15:46;;;;;;;49.95;21.20;;;;;;;;;;4923591;29;20063;-86
2023/02/23 16:18:17;;;;;;;34.67;14.85;;;;;;;;;;4907234;29;20032;-86
2023/02/23 16:20:54;;;;;;;31.77;15.53;;;;;;;;;;4906264;29;20028;-86
2023/02/23 16:23:30;;;;;;;27.25;11.70;;;;;;;;;;4926423;29;20016;-86
2023/02/23 16:26:00;;;;;;;28.10;12.40;;;;;;;;;;4929196;29;20075;-85
2023/02/23 16:28:30;;;;;;;25.15;12.40;;;;;;;;;;4936394;29;20054;-85
2023/02/23 16:30:58;;;;;;;25.52;11.57;;;;;;;;;;4916216;29;20130;-85
2023/02/23 16:33:25;;;;;;;18.25;10.88;;;;;;;;;;4932978;29;20067;-85
2023/02/23 16:35:54;;;;;;;15.57;10.20;;;;;;;;;;4923994;29;20040;-85
2023/02/23 16:38:24;;;;;;;17.25;10.30;;;;;;;;;;4922304;29;20048;-85
2023/02/23 16:40:50;;;;;;;18.33;10.52;;;;;;;;;;4922525;29;20052;-85
2023/02/23 16:43:16;;;;;;;17.98;9.95;;;;;;;;;;4905754;29;20032;-85
2023/02/23 16:45:42;;;;;;;18.88;10.10;;;;;;;;;;4922568;29;20032;-86
2023/02/23 16:48:13;;;;;;;16.58;9.93;;;;;;;;;;4922393;29;20039;-85
2023/02/23 16:50:39;;;;;;;18.90;11.38;;;;;;;;;;4922139;29;20035;-85
2023/02/23 16:53:09;;;;;;;16.13;10.45;;;;;;;;;;4922524;29;20036;-85
2023/02/23 16:55:38;;;;;;;20.95;11.35;;;;;;;;;;4928336;29;20027;-85
2023/02/23 16:58:07;;;;;;;17.23;10.45;;;;;;;;;;4921771;29;20072;-85
2023/02/23 17:00:33;;;;;;;18.00;11.25;;;;;;;;;;4930176;29;20059;-86
2023/02/23 17:02:59;;;;;;;16.67;10.50;;;;;;;;;;4928592;29;20083;-85
2023/02/23 17:05:25;;;;;;;15.98;10.30;;;;;;;;;;4932321;29;20058;-85
2023/02/23 17:07:52;;;;;;;18.15;11.38;;;;;;;;;;4930683;29;20035;-85
2023/02/23 17:10:23;;;;;;;15.57;10.00;;;;;;;;;;4930989;29;20027;-85
2023/02/23 17:13:01;;;;;;;14.98;10.15;;;;;;;;;;4929396;29;20027;-84
2023/02/23 17:15:30;;;;;;;17.23;10.05;;;;;;;;;;4931980;29;20024;-84
2023/02/23 17:17:56;;;;;;;14.68;10.05;;;;;;;;;;4924864;29;20024;-86
2023/02/23 17:20:24;;;;;;;21.05;11.93;;;;;;;;;;4922212;29;20166;-86
2023/02/23 17:22:51;;;;;;;19.17;11.18;;;;;;;;;;4922082;29;20111;-86
2023/02/23 17:25:17;;;;;;;14.90;10.23;;;;;;;;;;4926636;29;20019;-86
2023/02/23 17:27:43;;;;;;;23.58;13.98;;;;;;;;;;4929041;29;20334;-86
2023/02/23 17:30:10;;;;;;;28.88;16.20;;;;;;;;;;4932304;29;20024;-86
2023/02/23 17:32:37;;;;;;;24.42;13.25;;;;;;;;;;4931864;29;20407;-87
2023/02/23 17:35:03;;;;;;;20.90;13.13;;;;;;;;;;4917193;29;20063;-86
2023/02/23 17:37:29;;;;;;;27.80;16.15;;;;;;;;;;4936981;29;20020;-86
2023/02/23 17:40:16;;;;;;;30.88;16.55;;;;;;;;;;4921190;29;20027;-88
2023/02/23 17:42:43;;;;;;;41.03;19.90;;;;;;;;;;4925715;29;20062;-86
2023/02/23 17:45:10;;;;;;;54.95;31.23;;;;;;;;;;4923579;29;20410;-85
2023/02/23 17:47:41;;;;;;;75.18;45.17;;;;;;;;;;4920916;29;20474;-86
2023/02/23 17:50:07;;;;;;;70.13;45.30;;;;;;;;;;4921510;29;20031;-87